Time;durP1;ratioP1;P1;durP2;ratioP2;P2;SDS_P1;SDS_P2;PMS_P1;PMS_P2;Temp;Humidity;BMP_temperature;BMP_pressure;BME280_temperature;BME280_humidity;BME280_pressure;Samples;Min_cycle;Max_cycle;Signal;HPM_P1;HPM_P2
2021/12/04 00:01:24;;;;;;;37.05;16.88;;;3.90;99.90;;;;;;5068317;28;20063;-58
2021/12/04 00:03:53;;;;;;;35.58;17.50;;;3.90;99.90;;;;;;5066792;28;20040;-59
2021/12/04 00:06:27;;;;;;;31.83;15.95;;;4.00;99.90;;;;;;5067979;28;20511;-60
2021/12/04 00:09:01;;;;;;;37.45;15.95;;;4.00;99.90;;;;;;5062112;28;20056;-58
2021/12/04 00:11:28;;;;;;;43.58;18.38;;;4.00;99.90;;;;;;5048212;28;20048;-60
2021/12/04 00:13:56;;;;;;;39.97;18.15;;;4.00;99.90;;;;;;5058938;28;20053;-59
2021/12/04 00:16:24;;;;;;;38.03;18.00;;;4.10;99.90;;;;;;5066679;28;20183;-58
2021/12/04 00:18:51;;;;;;;48.85;18.70;;;4.00;99.90;;;;;;5065951;28;20052;-62
2021/12/04 00:21:19;;;;;;;46.08;19.50;;;4.10;99.90;;;;;;5069534;28;20040;-59
2021/12/04 00:23:47;;;;;;;36.97;18.50;;;4.10;99.90;;;;;;5068166;28;20197;-60
2021/12/04 00:26:14;;;;;;;40.55;18.55;;;4.10;99.90;;;;;;5065919;28;20044;-60
2021/12/04 00:28:42;;;;;;;50.08;21.08;;;4.10;99.90;;;;;;5070477;28;20060;-60
2021/12/04 00:31:10;;;;;;;41.17;19.90;;;4.20;99.90;;;;;;5070616;28;20377;-60
2021/12/04 00:33:44;;;;;;;52.13;19.60;;;4.20;99.90;;;;;;5069988;28;20051;-60
2021/12/04 00:36:41;;;;;;;41.00;18.23;;;4.20;99.90;;;;;;5072004;28;20044;-61
2021/12/04 00:50:15;;;;;;;33.40;13.95;;;4.40;99.90;;;;;;5070223;28;20051;-60
2021/12/04 00:52:43;;;;;;;38.72;14.73;;;4.40;99.90;;;;;;5071139;28;20403;-60
2021/12/04 00:55:11;;;;;;;41.38;15.40;;;4.50;99.90;;;;;;5064069;28;20053;-61
2021/12/04 00:57:39;;;;;;;46.70;16.05;;;4.50;99.90;;;;;;5069928;28;20049;-61
2021/12/04 01:00:08;;;;;;;33.10;15.35;;;4.50;99.90;;;;;;5070284;28;20502;-61
2021/12/04 01:02:36;;;;;;;35.95;14.20;;;4.50;99.90;;;;;;5068802;28;20049;-60
2021/12/04 01:05:05;;;;;;;36.10;14.02;;;4.60;99.90;;;;;;5066712;28;20041;-64
2021/12/04 01:07:34;;;;;;;36.17;14.85;;;4.60;99.90;;;;;;5069162;28;20044;-65
2021/12/04 01:10:06;;;;;;;39.78;13.88;;;4.60;99.90;;;;;;5062277;28;20057;-65
2021/12/04 01:12:34;;;;;;;34.78;13.32;;;4.60;99.90;;;;;;5071148;28;20044;-64
2021/12/04 01:15:02;;;;;;;33.78;13.55;;;4.60;99.90;;;;;;5069895;28;20058;-64
2021/12/04 01:17:30;;;;;;;40.15;13.10;;;4.70;99.90;;;;;;5070981;28;20048;-61
2021/12/04 01:19:57;;;;;;;32.80;11.57;;;4.70;99.90;;;;;;5069752;28;20495;-61
2021/12/04 01:22:26;;;;;;;27.77;10.07;;;4.70;99.90;;;;;;5069852;28;20048;-62
2021/12/04 01:24:55;;;;;;;31.33;10.65;;;4.70;99.90;;;;;;5065567;28;20484;-61
2021/12/04 01:27:23;;;;;;;35.15;11.63;;;4.70;99.90;;;;;;5070690;28;20094;-60
2021/12/04 01:29:51;;;;;;;24.30;11.30;;;4.70;99.90;;;;;;5070682;28;20052;-60
2021/12/04 01:32:19;;;;;;;34.08;10.77;;;4.70;99.90;;;;;;5069883;28;20039;-60
2021/12/04 01:34:47;;;;;;;32.38;11.23;;;4.70;99.90;;;;;;5052168;28;20053;-61
2021/12/04 01:37:15;;;;;;;30.23;10.88;;;4.70;99.90;;;;;;5070568;28;20041;-62
2021/12/04 01:39:42;;;;;;;34.38;11.88;;;4.80;99.90;;;;;;5068236;28;20063;-60
2021/12/04 01:42:10;;;;;;;34.42;13.00;;;4.80;99.90;;;;;;5070624;28;20051;-60
2021/12/04 01:44:38;;;;;;;32.55;11.57;;;4.80;99.90;;;;;;5070279;28;20484;-62
2021/12/04 01:47:17;;;;;;;29.23;10.65;;;4.90;99.90;;;;;;5069725;28;20483;-61
2021/12/04 01:49:45;;;;;;;31.45;10.65;;;4.90;99.90;;;;;;5070230;28;20496;-61
2021/12/04 01:52:13;;;;;;;40.53;11.95;;;4.90;99.90;;;;;;5070141;28;20061;-61
2021/12/04 01:54:40;;;;;;;30.85;10.70;;;4.90;99.90;;;;;;5065568;28;20048;-61
2021/12/04 01:57:08;;;;;;;32.13;10.13;;;5.00;99.90;;;;;;5070246;28;20051;-62
2021/12/04 01:59:36;;;;;;;24.33;8.88;;;5.00;99.90;;;;;;5068880;28;20048;-64
2021/12/04 02:02:04;;;;;;;27.25;10.23;;;5.00;99.90;;;;;;5069364;28;20044;-59
2021/12/04 02:04:32;;;;;;;29.15;10.13;;;5.00;99.90;;;;;;5069067;28;20551;-63
2021/12/04 02:07:03;;;;;;;31.77;9.85;;;5.10;99.90;;;;;;5070258;28;20047;-63
2021/12/04 02:09:32;;;;;;;24.88;10.10;;;5.10;99.90;;;;;;5068852;28;20523;-61
2021/12/04 02:12:03;;;;;;;29.60;9.48;;;5.10;99.90;;;;;;5069825;28;20059;-61
2021/12/04 02:14:37;;;;;;;22.50;9.82;;;5.10;99.90;;;;;;5069864;28;20037;-61
2021/12/04 02:17:06;;;;;;;28.90;9.15;;;5.10;99.90;;;;;;5070127;28;20060;-61
2021/12/04 02:19:34;;;;;;;33.65;8.75;;;5.10;99.90;;;;;;5068436;28;20040;-62
2021/12/04 02:22:02;;;;;;;23.90;9.05;;;5.10;99.90;;;;;;5068590;28;20063;-60
2021/12/04 02:24:30;;;;;;;26.52;8.50;;;5.20;99.90;;;;;;5064206;28;20392;-61
2021/12/04 02:26:58;;;;;;;25.52;8.70;;;5.20;99.90;;;;;;5048178;28;20060;-62
2021/12/04 02:29:26;;;;;;;29.05;7.70;;;5.20;99.90;;;;;;5065720;28;20211;-61
2021/12/04 02:31:56;;;;;;;25.75;8.80;;;5.20;99.90;;;;;;5053116;28;20041;-63
2021/12/04 02:34:28;;;;;;;;;;;5.20;99.90;;;;;;5065175;28;20037;-63
2021/12/04 02:36:57;;;;;;;21.40;6.18;;;5.30;99.90;;;;;;5048459;28;19944;-61
2021/12/04 02:39:29;;;;;;;28.23;7.32;;;5.30;99.90;;;;;;5064275;28;20411;-64
2021/12/04 02:41:58;;;;;;;17.05;6.03;;;5.40;99.90;;;;;;5049587;28;20063;-65
2021/12/04 02:44:39;;;;;;;21.92;6.57;;;5.40;99.90;;;;;;5063681;28;20484;-64
2021/12/04 02:47:07;;;;;;;23.15;6.45;;;5.40;99.90;;;;;;5069217;28;20044;-64
2021/12/04 02:49:35;;;;;;;26.65;5.63;;;5.40;99.90;;;;;;5068843;28;20052;-63
2021/12/04 02:52:04;;;;;;;27.17;6.80;;;5.50;99.90;;;;;;5069085;28;20392;-64
2021/12/04 02:54:33;;;;;;;22.83;4.43;;;5.50;99.90;;;;;;5068239;28;20043;-61
2021/12/04 02:57:02;;;;;;;18.52;5.18;;;5.60;99.90;;;;;;5048116;28;20076;-63
2021/12/04 02:59:32;;;;;;;21.52;4.32;;;5.60;99.90;;;;;;5064676;28;20427;-61
2021/12/04 03:02:00;;;;;;;16.45;3.67;;;5.60;99.90;;;;;;5067860;28;20503;-64
2021/12/04 03:04:28;;;;;;;13.23;3.95;;;5.70;99.90;;;;;;5068989;28;20059;-66
2021/12/04 03:06:56;;;;;;;12.50;3.70;;;5.60;99.90;;;;;;5068957;28;20044;-64
2021/12/04 03:09:23;;;;;;;19.00;4.20;;;5.70;99.90;;;;;;5068738;28;20532;-66
2021/12/04 03:11:51;;;;;;;17.33;4.30;;;5.60;99.90;;;;;;5050562;28;20060;-62
2021/12/04 03:14:20;;;;;;;28.05;4.70;;;5.70;99.90;;;;;;5048964;28;20481;-63
2021/12/04 03:16:47;;;;;;;15.88;3.80;;;5.70;99.90;;;;;;5048839;28;20052;-64
2021/12/04 03:19:17;;;;;;;21.17;5.47;;;5.70;99.90;;;;;;5051221;28;20041;-63
2021/12/04 03:21:46;;;;;;;16.10;4.45;;;5.70;99.90;;;;;;5059659;28;20049;-65
2021/12/04 03:24:16;;;;;;;14.68;1.73;;;5.70;99.90;;;;;;5072072;28;20040;-64
2021/12/04 03:26:46;;;;;;;9.82;2.58;;;5.70;99.90;;;;;;5072236;28;20071;-64
2021/12/04 03:29:18;;;;;;;8.40;1.13;;;5.80;99.90;;;;;;5072029;28;20040;-63
2021/12/04 03:40:33;;;;;;;6.72;0.95;;;5.90;99.90;;;;;;5071918;28;20048;-64
2021/12/04 03:42:59;;;;;;;3.35;0.45;;;5.90;99.90;;;;;;5071469;28;20534;-65
2021/12/04 03:45:27;;;;;;;4.72;0.82;;;5.80;99.90;;;;;;5071898;28;20052;-65
2021/12/04 03:48:04;;;;;;;3.53;0.57;;;5.60;99.90;;;;;;5072027;28;20045;-65
2021/12/04 03:50:31;;;;;;;4.47;0.82;;;5.50;99.90;;;;;;5072342;28;20040;-65
2021/12/04 03:52:59;;;;;;;4.10;0.50;;;5.40;99.90;;;;;;5071738;28;20053;-60
2021/12/04 03:55:27;;;;;;;5.78;0.70;;;5.30;99.90;;;;;;5071010;28;20395;-59
2021/12/04 03:57:57;;;;;;;3.72;0.73;;;5.30;99.90;;;;;;5071485;28;20052;-58
2021/12/04 04:00:28;;;;;;;4.97;1.13;;;5.20;99.90;;;;;;5070571;28;20063;-59
2021/12/04 04:02:58;;;;;;;12.35;1.60;;;5.20;99.90;;;;;;5071604;28;20040;-59
2021/12/04 04:05:26;;;;;;;6.57;0.50;;;5.10;99.90;;;;;;5071547;28;20045;-58
2021/12/04 04:07:54;;;;;;;7.72;0.88;;;5.10;99.90;;;;;;5070332;28;20055;-59
2021/12/04 04:10:22;;;;;;;10.95;1.52;;;5.10;99.90;;;;;;5071352;28;20412;-60
2021/12/04 04:12:50;;;;;;;3.63;0.80;;;5.10;99.90;;;;;;5071356;28;20056;-58
2021/12/04 04:15:20;;;;;;;4.63;0.70;;;5.10;99.90;;;;;;5070356;28;20040;-59
2021/12/04 04:17:48;;;;;;;;;;;5.10;99.90;;;;;;5071815;28;20041;-59
2021/12/04 04:20:18;;;;;;;8.82;0.85;;;5.10;99.90;;;;;;5070303;28;19920;-60
2021/12/04 04:22:48;;;;;;;6.60;0.70;;;5.00;99.90;;;;;;5069832;28;20514;-59
2021/12/04 04:25:17;;;;;;;16.42;1.85;;;5.10;99.90;;;;;;5069967;28;20055;-59
2021/12/04 04:27:45;;;;;;;6.25;0.80;;;5.00;99.90;;;;;;5071421;28;20235;-59
2021/12/04 04:30:16;;;;;;;6.75;0.98;;;5.00;99.90;;;;;;5071418;28;20240;-59
2021/12/04 04:32:47;;;;;;;6.63;0.65;;;5.00;99.90;;;;;;5070028;28;20057;-59
2021/12/04 04:35:17;;;;;;;15.40;1.13;;;5.00;99.90;;;;;;5071334;28;20073;-59
2021/12/04 05:11:15;;;;;;;7.57;0.98;;;4.70;99.90;;;;;;5073295;28;20037;-59
2021/12/04 05:13:43;;;;;;;3.97;0.85;;;4.70;99.90;;;;;;5074649;28;20059;-59
2021/12/04 05:16:13;;;;;;;20.42;1.35;;;4.60;99.90;;;;;;5074271;28;20473;-58
2021/12/04 05:18:50;;;;;;;6.82;0.65;;;4.60;99.90;;;;;;5074037;28;20049;-58
2021/12/04 05:21:19;;;;;;;15.60;1.20;;;4.50;99.90;;;;;;5073099;28;20040;-59
2021/12/04 05:23:53;;;;;;;11.25;1.30;;;4.50;99.90;;;;;;5074455;28;20416;-61
2021/12/04 05:26:26;;;;;;;14.95;1.55;;;4.50;99.90;;;;;;5074487;28;20059;-59
2021/12/04 05:29:00;;;;;;;11.00;1.10;;;4.40;99.90;;;;;;5056607;28;20057;-59
2021/12/04 05:31:28;;;;;;;10.13;1.25;;;4.40;99.90;;;;;;5074248;28;20041;-60
2021/12/04 05:33:56;;;;;;;14.50;1.42;;;4.40;99.90;;;;;;5074410;28;20468;-63
2021/12/04 05:36:24;;;;;;;15.50;1.48;;;4.30;99.90;;;;;;5073854;28;20411;-63
2021/12/04 05:38:53;;;;;;;16.58;1.40;;;4.30;99.90;;;;;;5074076;28;20059;-65
2021/12/04 05:41:21;;;;;;;5.20;1.30;;;4.30;99.90;;;;;;5074215;28;20045;-64
2021/12/04 05:43:49;;;;;;;13.93;2.17;;;4.20;99.90;;;;;;5073972;28;20049;-62
2021/12/04 05:46:22;;;;;;;7.95;1.10;;;4.20;99.90;;;;;;5073844;28;20048;-62
2021/12/04 05:48:54;;;;;;;8.27;1.50;;;4.10;99.90;;;;;;5052983;28;20049;-58
2021/12/04 05:51:36;;;;;;;7.15;0.98;;;4.10;99.90;;;;;;5061180;28;20052;-59
2021/12/04 05:56:51;;;;;;;10.88;1.60;;;4.00;99.90;;;;;;5048632;28;20052;-60
2021/12/04 05:59:19;;;;;;;17.50;2.15;;;3.90;99.90;;;;;;5070000;28;20051;-58
2021/12/04 06:01:47;;;;;;;11.00;1.55;;;3.80;99.90;;;;;;5064522;28;20044;-59
2021/12/04 06:04:15;;;;;;;13.55;1.33;;;3.80;99.90;;;;;;5059618;28;20052;-59
2021/12/04 06:06:44;;;;;;;9.35;2.03;;;3.70;99.90;;;;;;5045561;28;20056;-59
2021/12/04 06:09:12;;;;;;;8.67;1.63;;;3.70;99.90;;;;;;5066091;28;20044;-60
2021/12/04 06:11:40;;;;;;;13.45;1.95;;;3.60;99.90;;;;;;5068159;28;20819;-60
2021/12/04 06:14:08;;;;;;;9.13;1.30;;;3.60;99.90;;;;;;5067833;28;20059;-58
2021/12/04 06:16:36;;;;;;;15.88;1.95;;;3.60;99.90;;;;;;5066544;28;20341;-60
2021/12/04 06:24:44;;;;;;;9.60;1.00;;;3.60;99.90;;;;;;5066184;28;20496;-62
2021/12/04 06:27:12;;;;;;;8.13;1.05;;;3.60;99.90;;;;;;5064829;28;20488;-60
2021/12/04 06:29:40;;;;;;;8.48;1.00;;;3.60;99.90;;;;;;5048929;28;20523;-60
2021/12/04 06:32:07;;;;;;;8.13;1.10;;;3.60;99.90;;;;;;5065083;28;20396;-62
2021/12/04 06:34:35;;;;;;;10.27;1.40;;;3.60;99.90;;;;;;5048311;28;20060;-63
2021/12/04 06:37:03;;;;;;;4.95;0.93;;;3.50;99.90;;;;;;5047134;28;20045;-60
2021/12/04 06:39:31;;;;;;;6.28;0.80;;;3.50;99.90;;;;;;5064848;28;20075;-61
2021/12/04 06:41:58;;;;;;;10.27;1.88;;;3.40;99.90;;;;;;5046295;28;20045;-59
2021/12/04 06:44:27;;;;;;;11.50;2.78;;;3.40;99.90;;;;;;5066146;28;20055;-59
2021/12/04 06:46:55;;;;;;;13.43;1.73;;;3.30;99.90;;;;;;5065820;28;20386;-59
2021/12/04 06:49:27;;;;;;;7.43;1.60;;;3.30;99.90;;;;;;5046087;28;20049;-60
2021/12/04 06:52:01;;;;;;;7.60;0.77;;;3.20;99.90;;;;;;5061059;28;20054;-59
2021/12/04 06:54:35;;;;;;;7.25;1.00;;;3.20;99.90;;;;;;5065612;28;20044;-60
2021/12/04 06:57:08;;;;;;;8.43;1.17;;;3.20;99.90;;;;;;5065900;28;20052;-61
2021/12/04 06:59:38;;;;;;;8.52;0.93;;;3.10;99.90;;;;;;5069212;28;20041;-60
2021/12/04 07:02:06;;;;;;;2.53;0.88;;;3.10;99.90;;;;;;5065813;28;20055;-59
2021/12/04 07:04:37;;;;;;;9.90;0.63;;;3.10;99.90;;;;;;5050105;28;20045;-60
2021/12/04 07:07:08;;;;;;;9.88;1.42;;;3.00;99.90;;;;;;5058300;28;20048;-60
2021/12/04 07:09:37;;;;;;;15.27;1.63;;;3.00;99.90;;;;;;5068438;28;20044;-59
2021/12/04 07:12:05;;;;;;;8.95;1.05;;;3.00;99.90;;;;;;5067524;28;20061;-59
2021/12/04 07:14:33;;;;;;;8.00;1.00;;;3.10;99.90;;;;;;5068761;28;20044;-60
2021/12/04 07:17:03;;;;;;;12.88;1.58;;;3.10;99.90;;;;;;5068623;28;20049;-60
2021/12/04 07:19:31;;;;;;;;;;;3.10;99.90;;;;;;5055023;28;20049;-59
2021/12/04 07:21:59;;;;;;;3.85;0.90;;;3.20;99.90;;;;;;5064544;28;19920;-60
2021/12/04 07:24:29;;;;;;;8.93;1.35;;;3.30;99.90;;;;;;5067349;28;20507;-59
2021/12/04 07:26:56;;;;;;;11.60;1.00;;;3.30;99.90;;;;;;5067139;28;20048;-59
2021/12/04 07:29:25;;;;;;;7.38;1.42;;;3.30;99.90;;;;;;5068800;28;20040;-60
2021/12/04 07:31:53;;;;;;;13.20;1.38;;;3.30;99.90;;;;;;5066430;28;20489;-60
2021/12/04 07:34:20;;;;;;;7.90;1.38;;;3.20;99.90;;;;;;5056545;28;20051;-60
2021/12/04 07:36:48;;;;;;;18.67;0.85;;;3.20;99.90;;;;;;5064632;28;20507;-60
2021/12/04 07:39:16;;;;;;;5.57;0.63;;;3.20;99.90;;;;;;5065058;28;20397;-59
2021/12/04 07:41:44;;;;;;;10.05;1.13;;;3.10;99.90;;;;;;5065253;28;20044;-60
2021/12/04 07:44:12;;;;;;;18.75;2.42;;;3.10;99.90;;;;;;5068086;28;20048;-60
2021/12/04 07:46:41;;;;;;;8.23;0.80;;;3.10;99.90;;;;;;5066646;28;20056;-59
2021/12/04 07:49:09;;;;;;;8.52;0.75;;;3.10;99.90;;;;;;5055775;28;20598;-60
2021/12/04 07:51:37;;;;;;;8.70;1.33;;;3.20;99.90;;;;;;5060434;28;20044;-61
2021/12/04 07:54:05;;;;;;;7.30;1.10;;;3.30;99.90;;;;;;5066373;28;20048;-61
2021/12/04 07:56:32;;;;;;;8.02;1.20;;;3.30;99.90;;;;;;5068341;28;20492;-61
2021/12/04 07:59:01;;;;;;;9.18;1.52;;;3.40;99.90;;;;;;5067682;28;20518;-60
2021/12/04 08:01:28;;;;;;;4.60;0.73;;;3.40;99.90;;;;;;5065812;28;20500;-60
2021/12/04 08:03:57;;;;;;;12.07;1.38;;;3.50;99.90;;;;;;5056904;28;20052;-60
2021/12/04 08:06:26;;;;;;;8.25;1.20;;;3.50;99.90;;;;;;5059258;28;20051;-59
2021/12/04 08:08:58;;;;;;;6.45;1.08;;;3.50;99.90;;;;;;5066310;28;20523;-59
2021/12/04 08:11:31;;;;;;;6.20;2.00;;;3.60;99.90;;;;;;5068600;28;20380;-60
2021/12/04 08:13:59;;;;;;;16.38;2.25;;;3.60;99.90;;;;;;5067314;28;20510;-60
2021/12/04 08:16:27;;;;;;;9.75;2.83;;;3.70;99.90;;;;;;5066235;28;20045;-59
2021/12/04 08:18:55;;;;;;;11.02;2.70;;;3.70;99.90;;;;;;5062652;28;20053;-61
2021/12/04 08:21:22;;;;;;;5.75;1.20;;;3.70;99.90;;;;;;5059636;28;20059;-59
2021/12/04 08:23:50;;;;;;;9.88;1.58;;;3.70;99.90;;;;;;5067399;28;20052;-61
2021/12/04 08:26:18;;;;;;;10.80;1.42;;;3.70;99.90;;;;;;5066321;28;20056;-60
2021/12/04 08:28:47;;;;;;;14.38;2.00;;;3.80;99.90;;;;;;5066572;28;20241;-60
2021/12/04 08:31:15;;;;;;;5.47;1.33;;;3.80;99.90;;;;;;5068198;28;20048;-59
2021/12/04 08:33:43;;;;;;;7.13;1.75;;;3.80;99.90;;;;;;5047422;28;20052;-61
2021/12/04 08:36:11;;;;;;;11.02;2.70;;;3.80;99.90;;;;;;5060112;28;20044;-61
2021/12/04 08:38:41;;;;;;;14.13;2.22;;;3.90;99.90;;;;;;5066201;28;20048;-59
2021/12/04 08:41:09;;;;;;;9.40;2.40;;;3.90;99.90;;;;;;5050161;28;20048;-60
2021/12/04 08:43:37;;;;;;;14.88;2.90;;;4.00;99.90;;;;;;5071024;28;20067;-60
2021/12/04 08:46:05;;;;;;;9.88;2.83;;;4.00;99.90;;;;;;5069723;28;20037;-59
2021/12/04 08:48:39;;;;;;;8.68;2.33;;;4.00;99.90;;;;;;5069520;28;20111;-60
2021/12/04 08:51:09;;;;;;;10.10;1.75;;;4.10;99.90;;;;;;5071402;28;20047;-60
2021/12/04 08:53:37;;;;;;;4.95;1.10;;;4.10;99.90;;;;;;5069718;28;20048;-59
2021/12/04 08:56:24;;;;;;;;;;;;;;;;;;;;;
2021/12/04 08:58:57;;;;;;;7.80;1.15;;;4.10;99.90;;;;;;5066801;28;20056;-59
2021/12/04 09:01:29;;;;;;;5.95;1.52;;;4.20;99.90;;;;;;5071513;28;20047;-59
2021/12/04 09:04:23;;;;;;;5.38;0.60;;;4.30;99.90;;;;;;5069870;28;20056;-60
2021/12/04 09:06:52;;;;;;;5.18;1.65;;;4.30;99.90;;;;;;5071423;28;20049;-60
2021/12/04 09:09:20;;;;;;;;;;;4.50;99.90;;;;;;5071369;28;20071;-60
2021/12/04 09:12:00;;;;;;;10.18;1.08;;;4.50;99.90;;;;;;5070018;28;19920;-60
2021/12/04 09:14:32;;;;;;;6.72;0.90;;;4.50;99.90;;;;;;5071057;28;20048;-60
2021/12/04 09:17:01;;;;;;;3.22;0.80;;;4.50;99.90;;;;;;5069862;28;20029;-59
2021/12/04 09:19:29;;;;;;;12.18;2.05;;;4.60;99.90;;;;;;5065478;28;20481;-61
2021/12/04 09:21:58;;;;;;;7.60;0.82;;;4.60;99.90;;;;;;5062852;28;20048;-59
2021/12/04 09:24:29;;;;;;;7.43;1.45;;;4.70;99.90;;;;;;5070529;28;21555;-59
2021/12/04 09:30:12;;;;;;;6.55;1.35;;;4.70;99.90;;;;;;5069702;28;20045;-60
2021/12/04 10:05:14;;;;;;;;;;;5.20;99.90;;;;;;5061661;28;20485;-59
2021/12/04 10:16:24;;;;;;;9.10;0.95;;;5.40;99.90;;;;;;5066387;28;20304;-62
2021/12/04 10:32:54;;;;;;;9.93;1.65;;;5.80;99.90;;;;;;5051637;28;20399;-61
2021/12/04 10:35:23;;;;;;;3.45;1.02;;;5.80;99.90;;;;;;5059028;28;20068;-61
2021/12/04 10:37:57;;;;;;;3.92;0.43;;;5.90;99.90;;;;;;5053134;28;20040;-62
2021/12/04 10:40:44;;;;;;;4.22;0.70;;;5.90;99.90;;;;;;5064268;28;20422;-61
2021/12/04 10:43:23;;;;;;;2.63;0.25;;;5.90;99.90;;;;;;5065403;28;20500;-61
2021/12/04 10:45:57;;;;;;;5.97;0.88;;;6.00;99.90;;;;;;5066073;28;20511;-61
2021/12/04 10:48:29;;;;;;;3.65;0.63;;;6.00;99.90;;;;;;5047756;28;20060;-62
2021/12/04 10:51:22;;;;;;;5.75;1.23;;;6.10;99.90;;;;;;5053466;28;20061;-61
2021/12/04 10:53:51;;;;;;;4.30;0.70;;;6.10;99.90;;;;;;5060434;28;20044;-61
2021/12/04 11:18:44;;;;;;;2.58;1.50;;;6.30;98.60;;;;;;5056246;28;20183;-62
2021/12/04 11:24:23;;;;;;;2.45;0.65;;;6.40;99.40;;;;;;5060832;28;20488;-68
2021/12/04 11:36:07;;;;;;;3.78;1.63;;;6.80;98.20;;;;;;5067093;28;20488;-67
2021/12/04 11:38:24;;;;;;;7.28;1.23;;;6.90;98.70;;;;;;5057884;28;20048;-66
2021/12/04 11:46:56;;;;;;;6.20;1.05;;;6.80;96.40;;;;;;5067965;28;20504;-65
2021/12/04 11:49:30;;;;;;;5.05;0.90;;;6.80;97.20;;;;;;5065989;28;20407;-61
2021/12/04 11:52:02;;;;;;;2.30;0.30;;;6.70;97.10;;;;;;5062959;28;20075;-68
2021/12/04 11:54:50;;;;;;;3.83;1.10;;;6.70;96.30;;;;;;5068090;28;20044;-67
2021/12/04 11:57:26;;;;;;;8.65;1.23;;;6.70;96.90;;;;;;5067425;28;20052;-68
2021/12/04 11:59:54;;;;;;;6.03;1.00;;;6.70;97.50;;;;;;5066848;28;20041;-68
2021/12/04 12:02:24;;;;;;;6.72;0.65;;;6.70;96.30;;;;;;5067824;28;20048;-68
2021/12/04 12:04:55;;;;;;;3.72;1.42;;;6.80;96.50;;;;;;5067982;28;20448;-68
2021/12/04 12:07:26;;;;;;;9.40;1.05;;;6.80;96.50;;;;;;5051807;28;20056;-68
2021/12/04 12:10:05;;;;;;;4.07;0.75;;;6.90;97.00;;;;;;5068131;28;20079;-65
2021/12/04 12:12:36;;;;;;;3.65;1.08;;;7.00;96.90;;;;;;5068288;28;20048;-66
2021/12/04 12:15:23;;;;;;;1.65;0.73;;;7.00;96.20;;;;;;5068193;28;20055;-62
2021/12/04 12:17:53;;;;;;;4.32;0.70;;;7.00;95.90;;;;;;5067809;28;20044;-64
2021/12/04 12:20:37;;;;;;;12.20;0.80;;;7.10;95.90;;;;;;5067006;28;20056;-61
2021/12/04 12:23:09;;;;;;;7.60;1.02;;;7.10;95.50;;;;;;5056437;28;20041;-67
2021/12/04 12:33:57;;;;;;;5.80;1.00;;;7.20;95.60;;;;;;5067339;28;20045;-62
2021/12/04 12:36:29;;;;;;;9.45;1.13;;;7.40;95.60;;;;;;5059225;28;20488;-59
2021/12/04 12:39:04;;;;;;;4.82;0.90;;;8.00;97.70;;;;;;5063444;28;20461;-59
2021/12/04 12:41:44;;;;;;;6.97;1.20;;;8.60;95.50;;;;;;5066407;28;20195;-61
2021/12/04 12:44:17;;;;;;;8.73;0.93;;;9.00;92.20;;;;;;5067830;28;20052;-59
2021/12/04 12:46:56;;;;;;;5.28;0.93;;;9.00;90.30;;;;;;5067517;28;20075;-61
2021/12/04 12:49:24;;;;;;;2.42;0.80;;;8.80;89.90;;;;;;5066504;28;20328;-59
2021/12/04 12:52:10;;;;;;;7.65;0.70;;;8.60;91.20;;;;;;5065437;28;20044;-60
2021/12/04 12:54:45;;;;;;;6.20;0.68;;;8.40;90.50;;;;;;5067665;28;20044;-59
2021/12/04 12:57:20;;;;;;;3.08;0.90;;;8.20;90.60;;;;;;5067731;28;20055;-59
2021/12/04 13:11:36;;;;;;;7.35;0.70;;;7.90;90.80;;;;;;5067031;28;20060;-59
2021/12/04 13:14:17;;;;;;;4.57;0.85;;;7.20;93.00;;;;;;5066875;28;20044;-61
2021/12/04 13:16:49;;;;;;;4.97;0.77;;;7.10;93.10;;;;;;5067661;28;20432;-60
2021/12/04 13:19:20;;;;;;;3.50;0.70;;;7.10;93.10;;;;;;5067067;28;20377;-60
2021/12/04 13:21:51;;;;;;;3.15;0.70;;;7.10;92.60;;;;;;5059025;28;20045;-61
2021/12/04 13:24:25;;;;;;;5.43;0.77;;;7.10;92.50;;;;;;5066077;28;20499;-59
2021/12/04 13:26:56;;;;;;;5.53;0.85;;;7.10;93.30;;;;;;5067409;28;20049;-59
2021/12/04 13:29:26;;;;;;;6.82;0.50;;;7.10;93.20;;;;;;5068078;28;20051;-59
2021/12/04 13:31:57;;;;;;;3.35;0.70;;;7.10;93.40;;;;;;5070567;28;20059;-59
2021/12/04 13:34:28;;;;;;;6.00;0.75;;;7.00;93.20;;;;;;5069047;28;20053;-59
2021/12/04 13:36:58;;;;;;;9.95;0.90;;;7.00;93.10;;;;;;5062531;28;20485;-59
2021/12/04 13:39:26;;;;;;;4.28;0.55;;;7.00;93.00;;;;;;5069982;28;20510;-60
2021/12/04 13:41:58;;;;;;;7.32;1.05;;;7.00;93.40;;;;;;5069697;28;20068;-60
2021/12/04 13:44:28;;;;;;;4.47;0.60;;;7.00;93.10;;;;;;5066788;28;20068;-62
2021/12/04 13:47:02;;;;;;;6.45;0.77;;;7.00;93.20;;;;;;5067390;28;20051;-59
2021/12/04 13:49:44;;;;;;;7.22;0.88;;;7.00;93.60;;;;;;5066817;28;20071;-59
2021/12/04 13:52:13;;;;;;;4.68;0.50;;;7.00;93.30;;;;;;5063732;28;20283;-59
2021/12/04 13:54:49;;;;;;;7.47;1.25;;;7.00;93.50;;;;;;5062466;28;20483;-59
2021/12/04 13:57:17;;;;;;;4.47;1.73;;;7.10;93.60;;;;;;5066820;28;20103;-61
2021/12/04 13:59:45;;;;;;;3.75;0.73;;;7.10;94.00;;;;;;5067226;28;20052;-59
2021/12/04 14:02:21;;;;;;;3.28;1.52;;;7.10;94.10;;;;;;5066243;28;20067;-59
2021/12/04 14:04:57;;;;;;;4.82;0.93;;;7.00;94.30;;;;;;5067272;28;20052;-61
2021/12/04 14:07:25;;;;;;;5.93;0.60;;;7.00;94.30;;;;;;5057967;28;20045;-59
2021/12/04 14:09:53;;;;;;;3.67;0.50;;;6.90;95.00;;;;;;5065018;28;20052;-63
2021/12/04 14:12:21;;;;;;;13.77;2.80;;;6.90;95.20;;;;;;5066794;28;20404;-65
2021/12/04 14:14:49;;;;;;;7.63;0.93;;;6.80;95.00;;;;;;5066583;28;20047;-64
2021/12/04 14:17:18;;;;;;;7.30;1.20;;;6.70;96.60;;;;;;5066471;28;20059;-65
2021/12/04 14:19:46;;;;;;;5.15;1.00;;;6.60;97.10;;;;;;5067005;28;20041;-60
2021/12/04 14:22:18;;;;;;;4.07;0.60;;;6.40;97.40;;;;;;5060519;28;20488;-60
2021/12/04 14:24:56;;;;;;;5.53;0.65;;;6.30;97.30;;;;;;5048344;28;20032;-61
2021/12/04 14:27:26;;;;;;;5.95;0.95;;;6.40;97.60;;;;;;5066199;28;20408;-61
2021/12/04 14:30:03;;;;;;;6.43;0.90;;;6.20;97.60;;;;;;5066336;28;20067;-59
2021/12/04 14:32:33;;;;;;;3.88;0.90;;;6.20;97.60;;;;;;5064930;28;20053;-61
2021/12/04 14:35:06;;;;;;;6.93;1.15;;;6.20;97.60;;;;;;5066519;28;20049;-65
2021/12/04 14:37:36;;;;;;;2.90;0.57;;;6.20;98.10;;;;;;5055058;28;20809;-60
2021/12/04 14:40:06;;;;;;;8.32;1.10;;;6.10;98.80;;;;;;5060628;28;20059;-63
2021/12/04 14:42:36;;;;;;;6.60;0.90;;;6.10;99.00;;;;;;5065749;28;20045;-62
2021/12/04 14:45:06;;;;;;;6.32;0.88;;;6.00;99.00;;;;;;5064927;28;20037;-65
2021/12/04 14:47:41;;;;;;;6.38;1.20;;;6.00;99.00;;;;;;5065621;28;20052;-65
2021/12/04 14:50:11;;;;;;;9.32;1.05;;;5.90;99.10;;;;;;5066150;28;20052;-62
2021/12/04 14:52:40;;;;;;;4.20;0.60;;;5.90;99.10;;;;;;5062793;28;20047;-62
2021/12/04 14:55:18;;;;;;;9.80;2.47;;;6.00;99.10;;;;;;5046020;28;20048;-64
2021/12/04 14:57:49;;;;;;;;;;;6.00;99.10;;;;;;5051307;28;20055;-61
2021/12/04 15:00:21;;;;;;;10.13;1.30;;;6.00;99.00;;;;;;5065234;28;19947;-61
2021/12/04 15:02:50;;;;;;;4.32;0.43;;;6.00;98.90;;;;;;5064596;28;20051;-62
2021/12/04 15:05:50;;;;;;;8.35;0.68;;;6.10;98.90;;;;;;5064992;28;20059;-62
2021/12/04 15:08:26;;;;;;;10.15;1.70;;;6.10;98.50;;;;;;5049086;28;20514;-63
2021/12/04 15:11:09;;;;;;;5.20;1.83;;;6.20;99.00;;;;;;5045244;28;20056;-59
2021/12/04 15:13:42;;;;;;;4.45;0.80;;;6.20;99.00;;;;;;5048349;28;20464;-62
2021/12/04 15:16:13;;;;;;;6.80;1.33;;;6.20;98.80;;;;;;5045374;28;20049;-62
2021/12/04 15:18:42;;;;;;;7.32;1.17;;;6.10;99.10;;;;;;5063158;28;20503;-62
2021/12/04 15:21:39;;;;;;;9.40;1.63;;;6.20;99.90;;;;;;5064895;28;20053;-62
2021/12/04 15:24:12;;;;;;;2.85;0.88;;;6.00;99.90;;;;;;5051762;28;20052;-61
2021/12/04 15:26:42;;;;;;;5.75;0.90;;;5.90;99.90;;;;;;5059153;28;20044;-61
2021/12/04 15:29:19;;;;;;;7.03;0.90;;;5.90;99.90;;;;;;5064924;28;20500;-59
2021/12/04 15:31:47;;;;;;;3.70;0.88;;;5.90;99.90;;;;;;5065750;28;20045;-60
2021/12/04 15:34:16;;;;;;;1.50;0.50;;;5.90;99.90;;;;;;5065020;28;20064;-63
2021/12/04 15:36:47;;;;;;;4.95;0.90;;;5.90;99.90;;;;;;5064793;28;20053;-62
2021/12/04 15:39:47;;;;;;;6.70;0.90;;;6.00;99.90;;;;;;5048492;28;20045;-61
2021/12/04 15:42:33;;;;;;;4.05;0.52;;;5.90;99.90;;;;;;5045861;28;20511;-60
2021/12/04 15:45:29;;;;;;;5.95;0.57;;;6.00;99.90;;;;;;5063450;28;20041;-61
2021/12/04 15:51:05;;;;;;;3.45;0.50;;;5.80;99.90;;;;;;5064098;28;20045;-60
2021/12/04 15:53:33;;;;;;;2.13;0.50;;;5.70;99.90;;;;;;5058395;28;20500;-62
2021/12/04 15:56:03;;;;;;;3.80;0.60;;;5.50;99.90;;;;;;5044940;28;20053;-60
2021/12/04 15:58:33;;;;;;;4.93;0.43;;;5.40;99.90;;;;;;5055042;28;20044;-59
2021/12/04 16:01:08;;;;;;;6.32;0.60;;;5.30;99.90;;;;;;5063066;28;20052;-60
2021/12/04 16:03:40;;;;;;;4.53;0.57;;;5.20;99.90;;;;;;5064314;28;20511;-64
2021/12/04 16:06:14;;;;;;;3.10;1.67;;;5.10;99.90;;;;;;5064260;28;20063;-64
2021/12/04 16:08:42;;;;;;;4.25;0.68;;;5.10;99.90;;;;;;5058972;28;20071;-61
2021/12/04 16:11:14;;;;;;;;;;;5.10;99.90;;;;;;5045153;28;20045;-61
2021/12/04 16:13:49;;;;;;;3.45;0.88;;;5.00;99.90;;;;;;5057062;28;19994;-61
2021/12/04 16:16:20;;;;;;;8.35;0.70;;;5.10;99.90;;;;;;5064384;28;20037;-61
2021/12/04 16:18:51;;;;;;;2.88;0.75;;;5.00;99.90;;;;;;5064353;28;20059;-59